createdAt,value
2022-12-02T00:01:45.444Z,56.03
2022-12-02T00:04:24.961Z,55.20
2022-12-02T00:06:57.316Z,54.95
2022-12-02T00:09:30.351Z,58.13
2022-12-02T00:11:59.016Z,58.78
2022-12-02T00:14:30.223Z,59.63
2022-12-02T00:16:58.700Z,51.92
2022-12-02T00:19:28.434Z,57.65
2022-12-02T00:21:56.746Z,57.58
2022-12-02T00:24:25.078Z,57.75
2022-12-02T00:26:53.414Z,61.78
2022-12-02T00:29:22.271Z,49.78
2022-12-02T00:31:52.814Z,55.38
2022-12-02T00:34:21.318Z,58.17
2022-12-02T00:36:51.184Z,56.40
2022-12-02T00:39:19.562Z,58.85
2022-12-02T00:41:47.929Z,54.88
2022-12-02T00:44:36.199Z,61.17
2022-12-02T00:47:04.521Z,57.50
2022-12-02T00:49:33.007Z,55.80
2022-12-02T00:52:02.757Z,56.83
2022-12-02T00:54:31.023Z,54.28
2022-12-02T00:57:00.035Z,57.47
2022-12-02T00:59:29.297Z,66.63
2022-12-02T01:01:57.912Z,68.43
2022-12-02T01:04:26.535Z,57.50
2022-12-02T01:06:54.882Z,57.63
2022-12-02T01:09:24.824Z,58.50
2022-12-02T01:11:54.596Z,54.72
2022-12-02T01:14:25.546Z,57.13
2022-12-02T01:16:53.881Z,55.97
2022-12-02T01:19:24.756Z,60.77
2022-12-02T01:21:55.230Z,59.22
2022-12-02T01:24:27.298Z,58.60
2022-12-02T01:26:55.624Z,58.72
2022-12-02T01:29:23.989Z,62.10
2022-12-02T01:31:52.287Z,61.55
2022-12-02T01:34:20.636Z,64.35
2022-12-02T01:36:51.411Z,60.42
2022-12-02T01:39:19.691Z,64.30
2022-12-02T01:41:49.394Z,67.22
2022-12-02T01:44:18.147Z,58.58
2022-12-02T01:46:46.597Z,61.42
2022-12-02T01:49:14.882Z,61.03
2022-12-02T01:51:43.362Z,63.55
2022-12-02T01:54:11.738Z,60.00
2022-12-02T01:56:40.694Z,60.03
2022-12-02T01:59:14.489Z,65.85
2022-12-02T02:01:43.000Z,58.58
2022-12-02T02:04:12.059Z,63.30
2022-12-02T02:06:44.275Z,60.08
2022-12-02T02:09:12.904Z,64.57
2022-12-02T02:11:43.252Z,64.53
2022-12-02T02:14:14.324Z,58.00
2022-12-02T02:16:45.009Z,68.22
2022-12-02T02:19:16.158Z,66.53
2022-12-02T02:21:51.291Z,56.95
2022-12-02T02:24:24.374Z,61.00
2022-12-02T02:26:53.418Z,59.33
2022-12-02T02:29:21.871Z,61.00
2022-12-02T02:31:50.601Z,63.95
2022-12-02T02:34:19.051Z,64.03
2022-12-02T02:36:49.701Z,61.10
2022-12-02T02:39:19.414Z,62.20
2022-12-02T02:41:49.464Z,61.88
2022-12-02T02:44:25.545Z,63.40
2022-12-02T02:46:55.438Z,63.15
2022-12-02T02:49:24.050Z,60.58
2022-12-02T02:51:54.764Z,60.45
2022-12-02T02:54:23.169Z,59.00
2022-12-02T02:56:52.965Z,64.82
2022-12-02T02:59:21.422Z,61.47
2022-12-02T03:01:53.398Z,63.72
2022-12-02T03:04:25.286Z,61.05
2022-12-02T03:06:54.336Z,58.53
2022-12-02T03:09:24.907Z,60.53
2022-12-02T03:11:56.284Z,62.65
2022-12-02T03:14:25.349Z,64.72
2022-12-02T03:16:54.555Z,68.13
2022-12-02T03:19:23.017Z,72.05
2022-12-02T03:21:51.393Z,79.50
2022-12-02T03:24:19.743Z,72.05
2022-12-02T03:26:50.851Z,74.07
2022-12-02T03:29:21.300Z,80.43
2022-12-02T03:31:49.834Z,74.15
2022-12-02T03:34:18.442Z,86.13
2022-12-02T03:36:46.991Z,78.82
2022-12-02T03:39:18.242Z,82.03
2022-12-02T03:41:49.775Z,77.43
2022-12-02T03:49:18.543Z,86.78
2022-12-02T03:51:47.740Z,93.82
2022-12-02T03:54:16.595Z,134.68
2022-12-02T03:56:45.259Z,143.43
2022-12-02T03:59:21.208Z,142.52
2022-12-02T04:01:51.207Z,120.10
2022-12-02T04:04:22.335Z,116.68
2022-12-02T04:06:50.940Z,111.30
2022-12-02T04:09:19.333Z,120.13
2022-12-02T04:11:47.765Z,107.35
2022-12-02T04:14:16.208Z,118.07
2022-12-02T04:16:44.507Z,144.02
2022-12-02T04:19:15.430Z,143.93
2022-12-02T04:21:45.822Z,152.38
2022-12-02T04:24:14.212Z,147.20
2022-12-02T04:26:44.913Z,113.68
2022-12-02T04:29:13.598Z,105.03
2022-12-02T04:31:42.498Z,109.68
2022-12-02T04:34:10.923Z,97.60
2022-12-02T04:36:40.717Z,98.13
2022-12-02T04:39:09.119Z,96.68
2022-12-02T04:41:39.830Z,99.75
2022-12-02T04:44:08.278Z,94.78
2022-12-02T04:46:36.629Z,92.93
2022-12-02T04:49:05.344Z,85.78
2022-12-02T04:51:36.080Z,85.07
2022-12-02T04:54:05.873Z,90.07
2022-12-02T04:56:34.299Z,88.15
2022-12-02T04:59:02.660Z,95.70
2022-12-02T05:01:31.111Z,93.15
2022-12-02T05:04:01.595Z,80.43
2022-12-02T05:06:29.973Z,85.50
2022-12-02T05:09:00.718Z,94.35
2022-12-02T05:11:36.329Z,84.35
2022-12-02T05:14:05.190Z,88.47
2022-12-02T05:16:33.784Z,84.32
2022-12-02T05:19:02.227Z,94.45
2022-12-02T05:21:30.502Z,79.65
2022-12-02T05:24:01.011Z,81.75
2022-12-02T05:26:29.410Z,87.45
2022-12-02T05:28:59.202Z,82.35
2022-12-02T05:31:27.654Z,84.22
2022-12-02T05:33:56.071Z,72.85
2022-12-02T05:36:24.373Z,74.57
2022-12-02T05:38:52.683Z,79.28
2022-12-02T05:41:21.089Z,75.97
2022-12-02T05:43:49.451Z,88.53
2022-12-02T05:46:21.456Z,75.32
2022-12-02T05:48:52.906Z,76.40
2022-12-02T05:51:23.143Z,79.30
2022-12-02T05:53:52.275Z,76.97
2022-12-02T05:56:25.149Z,77.55
2022-12-02T05:58:53.988Z,71.63
2022-12-02T06:01:30.572Z,76.97
2022-12-02T06:04:00.321Z,72.80
2022-12-02T06:06:32.262Z,73.10
2022-12-02T06:09:01.797Z,78.25
2022-12-02T06:11:31.367Z,73.32
2022-12-02T06:14:02.619Z,74.97
2022-12-02T06:16:33.302Z,83.28
2022-12-02T06:19:12.879Z,92.20
2022-12-02T06:21:43.362Z,81.25
2022-12-02T06:24:12.853Z,81.47
2022-12-02T06:26:41.266Z,82.65
2022-12-02T06:29:13.261Z,91.10
2022-12-02T06:31:44.331Z,84.72
2022-12-02T06:34:26.665Z,90.53
2022-12-02T06:36:56.985Z,87.82
2022-12-02T06:39:27.460Z,96.80
2022-12-02T06:41:56.850Z,95.18
2022-12-02T06:44:44.547Z,94.22
2022-12-02T06:47:52.407Z,88.05
2022-12-02T06:50:31.491Z,82.70
2022-12-02T06:53:14.074Z,83.47
2022-12-02T06:55:42.531Z,83.60
2022-12-02T06:58:28.072Z,75.80
2022-12-02T07:01:09.786Z,76.00
2022-12-02T07:03:47.494Z,70.65
2022-12-02T07:06:19.725Z,78.80
2022-12-02T07:08:50.521Z,77.25
2022-12-02T07:11:47.049Z,79.65
2022-12-02T07:14:22.938Z,73.82
2022-12-02T07:16:52.925Z,74.68
2022-12-02T07:19:28.323Z,72.10
2022-12-02T07:21:56.670Z,73.75
2022-12-02T07:24:26.451Z,72.88
2022-12-02T07:26:54.851Z,71.25
2022-12-02T07:29:30.631Z,69.07
2022-12-02T07:31:59.038Z,75.00
2022-12-02T07:34:34.096Z,77.05
2022-12-02T07:37:05.074Z,75.35
2022-12-02T07:39:33.420Z,74.03
2022-12-02T07:42:03.933Z,73.22
2022-12-02T07:44:32.403Z,77.20
2022-12-02T07:47:00.742Z,78.18
2022-12-02T07:49:32.579Z,67.32
2022-12-02T07:52:01.070Z,69.75
2022-12-02T07:54:29.369Z,68.60
2022-12-02T07:56:57.686Z,70.07
2022-12-02T07:59:26.003Z,72.65
2022-12-02T08:01:54.359Z,63.97
2022-12-02T08:04:22.797Z,72.40
2022-12-02T08:06:52.664Z,62.30
2022-12-02T08:09:21.005Z,62.30
2022-12-02T08:11:49.335Z,63.15
2022-12-02T08:14:17.896Z,69.22
2022-12-02T08:16:46.321Z,63.05
2022-12-02T08:19:17.321Z,64.55
2022-12-02T08:21:47.770Z,59.72
2022-12-02T08:24:17.554Z,58.08
2022-12-02T08:26:48.315Z,64.43
2022-12-02T08:29:16.663Z,63.55
2022-12-02T08:31:44.959Z,58.40
2022-12-02T08:34:13.333Z,59.35
2022-12-02T08:36:41.653Z,60.92
2022-12-02T08:39:13.458Z,61.70
2022-12-02T08:41:43.165Z,63.95
2022-12-02T08:44:11.521Z,55.35
2022-12-02T08:46:40.131Z,61.03
2022-12-02T08:49:08.656Z,56.85
2022-12-02T08:51:37.005Z,61.70
2022-12-02T08:54:05.483Z,60.80
2022-12-02T08:56:33.867Z,61.38
2022-12-02T08:59:04.422Z,58.50
2022-12-02T09:01:33.029Z,59.65
2022-12-02T09:04:01.499Z,57.45
2022-12-02T09:06:34.325Z,56.08
2022-12-02T09:09:05.052Z,63.63
2022-12-02T09:11:34.303Z,65.95
2022-12-02T09:14:04.060Z,61.83
2022-12-02T09:16:32.469Z,58.58
2022-12-02T09:19:00.789Z,57.13
2022-12-02T09:21:29.200Z,59.15
2022-12-02T09:23:57.653Z,60.40
2022-12-02T09:26:28.149Z,55.10
2022-12-02T09:28:56.509Z,61.85
2022-12-02T09:31:26.285Z,59.45
2022-12-02T09:33:57.263Z,60.05
2022-12-02T09:36:27.690Z,52.00
2022-12-02T09:38:56.060Z,58.85
2022-12-02T09:41:24.551Z,63.30
2022-12-02T09:43:52.970Z,52.88
2022-12-02T09:46:24.793Z,62.33
2022-12-02T09:48:55.091Z,54.22
2022-12-02T09:51:25.985Z,58.00
2022-12-02T09:53:55.258Z,56.53
2022-12-02T09:56:24.098Z,58.55
2022-12-02T09:58:56.082Z,62.20
2022-12-02T10:01:27.050Z,56.65
2022-12-02T10:03:56.957Z,59.08
2022-12-02T10:06:27.286Z,59.65
2022-12-02T10:08:58.531Z,58.10
2022-12-02T10:11:29.052Z,63.47
2022-12-02T10:16:28.519Z,51.97
2022-12-02T10:19:02.109Z,63.13
2022-12-02T10:21:30.975Z,56.75
2022-12-02T10:24:01.179Z,63.78
2022-12-02T10:26:44.275Z,55.63
2022-12-02T10:29:20.328Z,59.75
2022-12-02T10:31:58.736Z,57.13
2022-12-02T10:34:30.470Z,50.92
2022-12-02T10:39:46.608Z,54.88
2022-12-02T10:42:21.234Z,59.55
2022-12-02T10:45:10.862Z,56.72
2022-12-02T10:47:39.215Z,60.35
2022-12-02T10:50:18.457Z,58.65
2022-12-02T10:52:49.208Z,55.78
2022-12-02T10:55:19.148Z,56.85
2022-12-02T10:57:49.397Z,59.47
2022-12-02T11:00:21.836Z,62.13
2022-12-02T11:02:51.886Z,54.80
2022-12-02T11:05:24.143Z,61.33
2022-12-02T11:07:57.924Z,53.30
2022-12-02T11:10:28.273Z,60.35
2022-12-02T11:13:28.600Z,56.47
2022-12-02T11:15:56.929Z,59.60
2022-12-02T11:18:57.669Z,56.00
2022-12-02T11:21:38.804Z,62.30
2022-12-02T11:24:39.210Z,60.50
2022-12-02T11:27:16.718Z,61.13
2022-12-02T11:32:51.339Z,58.28
2022-12-02T11:35:39.667Z,58.65
2022-12-02T11:38:24.298Z,53.35
2022-12-02T11:41:01.980Z,60.15
2022-12-02T11:43:53.196Z,51.85
2022-12-02T11:46:22.949Z,55.22
2022-12-02T11:48:54.234Z,49.35
2022-12-02T11:51:38.053Z,52.40
2022-12-02T11:54:14.083Z,48.45
2022-12-02T11:56:44.095Z,48.17
2022-12-02T11:59:22.815Z,46.55
2022-12-02T12:01:51.318Z,49.80
2022-12-02T12:04:28.010Z,46.00
2022-12-02T12:06:58.159Z,49.95
2022-12-02T12:09:28.853Z,49.22
2022-12-02T12:12:13.992Z,45.03
2022-12-02T12:15:02.217Z,47.72
2022-12-02T12:17:51.531Z,46.55
2022-12-02T12:20:45.860Z,47.83
2022-12-02T12:23:34.852Z,47.63
2022-12-02T12:26:08.312Z,43.57
2022-12-02T12:28:38.292Z,46.42
2022-12-02T12:31:08.119Z,47.10
2022-12-02T12:33:36.550Z,45.33
2022-12-02T12:36:05.161Z,46.40
2022-12-02T12:38:35.868Z,47.75
2022-12-02T12:41:04.222Z,43.00
2022-12-02T12:43:34.021Z,43.08
2022-12-02T12:46:02.403Z,45.25
2022-12-02T12:48:30.819Z,40.05
2022-12-02T21:25:38.669Z,26.65
2022-12-02T21:28:07.595Z,23.17
2022-12-02T21:30:38.068Z,31.17
2022-12-02T21:33:06.672Z,32.38
2022-12-02T21:35:34.967Z,33.20
2022-12-02T21:40:32.857Z,21.88
2022-12-02T21:43:03.693Z,22.77
2022-12-02T21:45:32.103Z,22.35
2022-12-02T21:48:02.804Z,21.50
2022-12-02T21:50:31.091Z,23.75
2022-12-02T21:52:59.431Z,21.50
2022-12-02T21:55:28.363Z,25.65
2022-12-02T21:57:58.097Z,20.73
2022-12-02T22:00:26.553Z,22.60
2022-12-02T22:02:54.976Z,21.02
2022-12-02T22:05:25.831Z,24.33
2022-12-02T22:07:54.726Z,24.60
2022-12-02T22:10:25.289Z,23.60
2022-12-02T22:12:54.380Z,25.15
2022-12-02T22:15:24.308Z,21.60
2022-12-02T22:17:52.783Z,28.17
2022-12-02T22:20:21.513Z,23.52
2022-12-02T22:22:49.820Z,23.55
2022-12-02T22:25:18.711Z,24.42
2022-12-02T22:27:47.032Z,27.70
2022-12-02T22:30:18.055Z,22.60
2022-12-02T22:32:48.032Z,25.98
2022-12-02T22:35:16.614Z,25.33
2022-12-02T22:37:44.930Z,27.80
2022-12-02T22:40:14.123Z,27.10
2022-12-02T22:42:42.371Z,24.08
2022-12-02T22:45:12.305Z,26.20
2022-12-02T22:47:40.599Z,24.00
2022-12-02T22:50:12.061Z,25.83
2022-12-02T22:52:40.445Z,26.33
2022-12-02T22:55:09.503Z,28.23
2022-12-02T22:57:37.790Z,29.45
2022-12-02T23:00:08.767Z,26.02
2022-12-02T23:02:37.113Z,26.20
2022-12-02T23:05:06.094Z,25.92
2022-12-02T23:07:38.167Z,26.83
2022-12-02T23:10:07.951Z,69.03
2022-12-02T23:12:38.386Z,39.55
2022-12-02T23:15:35.270Z,29.25
2022-12-02T23:20:31.138Z,26.40
2022-12-02T23:23:00.915Z,24.58
2022-12-02T23:25:31.333Z,28.23
2022-12-02T23:27:59.720Z,25.13
2022-12-02T23:30:29.643Z,26.83
2022-12-02T23:32:58.334Z,23.85
2022-12-02T23:35:26.772Z,24.25
2022-12-02T23:37:55.230Z,25.38
2022-12-02T23:40:26.047Z,25.55
2022-12-02T23:42:54.407Z,27.80
2022-12-02T23:45:24.952Z,25.88
2022-12-02T23:47:53.428Z,36.90
2022-12-02T23:50:21.801Z,36.33
2022-12-02T23:52:50.161Z,47.35
2022-12-02T23:55:18.716Z,28.83
2022-12-02T23:57:48.472Z,26.85
